KDCA/DCA METAR and TAF weather

Enter ICAO airport designator
Station Type Date Time Source
KDCA METAR 2020/06/05 08:52 UTC NOAA

KDCA 050852Z 18003KT 10SM BKN190 22/20 A2991 RMK AO2 SLP127 60012 T02170200 55013


Station Type Date Time Source
KDCA Decoded METAR 2020/06/05 08:52 UTC NOAA

WASHINGTON NATIONAL AIRPORT , VA, United States (KDCA) 38-51N 077-02W 18M
Jun 05, 2020 - 04:52 AM EDT / 2020.06.05 0852 UTC
Wind: from the S (180 degrees) at 3 MPH (3 KT):0
Visibility: 10 mile(s):0
Sky conditions: mostly cloudy
Temperature: 71.1 F (21.7 C)
Dew Point: 68.0 F (20.0 C)
Relative Humidity: 90%
Pressure (altimeter): 29.91 in. Hg (1012 hPa)
Pressure tendency: 0.04 inches (1.3 hPa) lower than three hours ago
ob: KDCA 050852Z 18003KT 10SM BKN190 22/20 A2991 RMK AO2 SLP127 60012 T02170200 55013
cycle: 9

Station Type Date Time Source
KDCA TAF 2020/06/05 09:33 UTC NOAA

TAF
AMD KDCA 050830Z 0509/0612 20005KT 4SM BR SCT080 BKN150
FM051100 21008KT P6SM SCT030 BKN100
FM051600 21009KT P6SM VCTS SCT035CB OVC050
FM060000 20006KT P6SM SCT050 OVC060

Example: see airport list